createdAt,value
2022-08-18T00:02:11.615Z,88.30
2022-08-18T00:04:49.022Z,88.10
2022-08-18T00:07:24.371Z,88.00
2022-08-18T00:09:52.414Z,87.30
2022-08-18T00:12:24.146Z,87.80
2022-08-18T00:14:51.811Z,88.00
2022-08-18T00:17:19.351Z,87.80
2022-08-18T00:19:48.459Z,87.90
2022-08-18T00:22:20.405Z,87.90
2022-08-18T00:24:51.275Z,87.70
2022-08-18T00:27:28.120Z,88.00
2022-08-18T00:30:01.814Z,88.40
2022-08-18T00:32:33.535Z,88.90
2022-08-18T00:35:19.477Z,89.50
2022-08-18T00:37:48.522Z,89.90
2022-08-18T00:40:19.644Z,90.00
2022-08-18T00:42:52.114Z,90.10
2022-08-18T00:45:27.144Z,90.30
2022-08-18T00:47:55.100Z,90.20
2022-08-18T00:50:27.202Z,90.60
2022-08-18T00:53:09.002Z,90.60
2022-08-18T00:55:38.370Z,90.80
2022-08-18T00:58:16.555Z,90.80
2022-08-18T01:00:45.731Z,90.90
2022-08-18T01:03:16.015Z,91.00
2022-08-18T01:06:04.380Z,91.10
2022-08-18T01:08:31.899Z,91.20
2022-08-18T01:11:02.306Z,91.30
2022-08-18T01:13:32.891Z,91.40
2022-08-18T01:16:21.036Z,91.20
2022-08-18T01:19:07.053Z,91.00
2022-08-18T01:21:51.719Z,91.10
2022-08-18T01:24:49.340Z,91.30
2022-08-18T01:27:18.568Z,91.90
2022-08-18T01:29:48.117Z,91.50
2022-08-18T01:32:21.564Z,91.50
2022-08-18T01:34:50.690Z,91.50
2022-08-18T01:37:22.191Z,91.60
2022-08-18T01:41:22.509Z,91.70
2022-08-18T01:42:37.334Z,91.70
2022-08-18T01:45:07.862Z,91.70
2022-08-18T01:47:58.050Z,91.80
2022-08-18T01:50:23.302Z,91.80
2022-08-18T01:52:52.512Z,91.80
2022-08-18T01:55:20.660Z,91.80
2022-08-18T01:57:47.941Z,91.80
2022-08-18T02:00:17.938Z,91.70
2022-08-18T02:02:47.011Z,91.80
2022-08-18T02:05:34.306Z,91.80
2022-08-18T02:08:01.467Z,91.60
2022-08-18T02:10:28.792Z,92.00
2022-08-18T02:12:55.997Z,92.10
2022-08-18T02:15:23.213Z,92.20
2022-08-18T02:17:50.617Z,92.20
2022-08-18T02:20:19.513Z,92.40
2022-08-18T02:22:49.976Z,92.50
2022-08-18T02:25:19.028Z,92.50
2022-08-18T02:27:46.996Z,92.50
2022-08-18T02:30:16.755Z,92.40
2022-08-18T02:32:44.258Z,92.40
2022-08-18T02:35:13.777Z,92.60
2022-08-18T02:37:42.482Z,92.80
2022-08-18T02:40:14.840Z,92.80
2022-08-18T02:42:44.113Z,92.80
2022-08-18T02:45:12.686Z,93.00
2022-08-18T02:47:40.357Z,92.80
2022-08-18T02:50:11.121Z,93.60
2022-08-18T02:52:38.350Z,92.90
2022-08-18T02:55:08.454Z,92.70
2022-08-18T02:57:35.854Z,92.50
2022-08-18T03:00:04.231Z,92.30
2022-08-18T03:02:32.339Z,92.00
2022-08-18T03:04:59.587Z,91.90
2022-08-18T03:07:28.946Z,91.80
2022-08-18T03:09:56.171Z,91.60
2022-08-18T03:12:23.413Z,91.60
2022-08-18T03:14:50.650Z,91.50
2022-08-18T03:17:17.811Z,91.40
2022-08-18T03:19:47.764Z,91.20
2022-08-18T03:22:27.441Z,91.10
2022-08-18T03:24:56.099Z,91.00
2022-08-18T03:27:23.398Z,90.90
2022-08-18T03:29:51.222Z,90.80
2022-08-18T03:32:18.767Z,90.70
2022-08-18T03:34:45.993Z,90.70
2022-08-18T03:37:16.313Z,90.60
2022-08-18T03:39:43.535Z,90.50
2022-08-18T03:42:10.729Z,90.60
2022-08-18T03:44:37.930Z,90.60
2022-08-18T03:47:09.433Z,90.60
2022-08-18T03:49:38.550Z,90.60
2022-08-18T03:52:09.299Z,90.50
2022-08-18T03:54:38.757Z,90.50
2022-08-18T03:57:09.304Z,90.90
2022-08-18T03:59:36.668Z,90.40
2022-08-18T04:02:05.426Z,90.40
2022-08-18T04:04:33.594Z,90.40
2022-08-18T04:07:04.997Z,90.40
2022-08-18T04:09:33.389Z,90.30
2022-08-18T04:12:09.024Z,90.20
2022-08-18T04:14:43.977Z,90.20
2022-08-18T04:17:11.132Z,90.20
2022-08-18T04:19:38.286Z,89.80
2022-08-18T04:22:06.058Z,90.20
2022-08-18T04:24:34.566Z,90.20
2022-08-18T04:27:04.889Z,90.20
2022-08-18T04:29:32.281Z,90.30
2022-08-18T04:32:02.742Z,90.20
2022-08-18T04:34:30.544Z,90.20
2022-08-18T04:36:57.707Z,90.10
2022-08-18T04:39:25.720Z,90.10
2022-08-18T04:41:53.100Z,90.10
2022-08-18T04:44:21.626Z,90.10
2022-08-18T04:46:52.415Z,90.00
2022-08-18T04:49:22.066Z,88.60
2022-08-18T04:52:26.934Z,89.20
2022-08-18T04:54:56.638Z,89.00
2022-08-18T04:57:23.989Z,88.70
2022-08-18T04:59:52.176Z,88.60
2022-08-18T05:02:21.220Z,88.30
2022-08-18T05:04:48.517Z,88.00
2022-08-18T05:07:19.088Z,87.80
2022-08-18T05:09:46.983Z,87.50
2022-08-18T05:12:15.447Z,87.20
2022-08-18T05:14:46.853Z,87.10
2022-08-18T05:17:15.949Z,86.60
2022-08-18T05:19:46.611Z,86.30
2022-08-18T05:22:18.412Z,85.70
2022-08-18T05:24:46.515Z,86.00
2022-08-18T05:27:14.132Z,85.20
2022-08-18T05:29:46.039Z,85.10
2022-08-18T05:32:36.968Z,84.40
2022-08-18T05:35:12.211Z,83.50
2022-08-18T05:38:05.783Z,83.30
2022-08-18T05:40:34.594Z,83.30
2022-08-18T05:43:03.551Z,83.00
2022-08-18T05:45:30.869Z,82.50
2022-08-18T05:47:59.923Z,81.20
2022-08-18T05:50:29.329Z,82.00
2022-08-18T05:53:09.333Z,81.60
2022-08-18T05:56:28.711Z,81.60
2022-08-18T05:58:57.399Z,80.80
2022-08-18T06:01:30.947Z,81.10
2022-08-18T06:04:05.594Z,80.70
2022-08-18T06:06:33.879Z,80.50
2022-08-18T06:09:35.259Z,80.10
2022-08-18T06:12:42.192Z,80.10
2022-08-18T06:15:18.794Z,79.50
2022-08-18T06:18:10.615Z,78.90
2022-08-18T06:20:53.617Z,79.40
2022-08-18T06:23:32.914Z,79.40
2022-08-18T06:26:40.205Z,79.20
2022-08-18T06:29:32.031Z,79.90
2022-08-18T06:32:34.545Z,79.80
2022-08-18T06:35:21.518Z,80.10
2022-08-18T06:38:27.478Z,80.10
2022-08-18T06:41:02.136Z,80.10
2022-08-18T06:43:32.320Z,79.90
2022-08-18T06:45:59.687Z,79.90
2022-08-18T06:48:36.781Z,80.00
2022-08-18T06:51:07.140Z,79.80
2022-08-18T06:54:18.747Z,80.20
2022-08-18T06:56:49.195Z,80.20
2022-08-18T06:59:21.339Z,79.10
2022-08-18T07:01:52.343Z,77.00
2022-08-18T07:04:43.084Z,76.40
2022-08-18T07:07:50.982Z,75.90
2022-08-18T07:10:18.469Z,76.00
2022-08-18T07:12:45.629Z,75.90
2022-08-18T07:15:22.977Z,75.90
2022-08-18T07:17:50.266Z,75.10
2022-08-18T07:20:23.604Z,74.50
2022-08-18T07:23:00.839Z,74.70
2022-08-18T07:25:38.714Z,74.50
2022-08-18T07:28:07.106Z,73.50
2022-08-18T07:30:37.718Z,73.10
2022-08-18T07:33:04.850Z,72.50
2022-08-18T07:35:45.742Z,70.30
2022-08-18T07:38:50.101Z,69.70
2022-08-18T07:41:20.492Z,68.40
2022-08-18T07:44:20.975Z,66.10
2022-08-18T07:47:11.224Z,62.50
2022-08-18T07:49:59.652Z,61.20
2022-08-18T07:52:44.248Z,60.80
2022-08-18T07:55:32.926Z,60.30
2022-08-18T07:58:14.073Z,60.60
2022-08-18T08:01:04.730Z,61.20
2022-08-18T08:03:43.507Z,60.50
2022-08-18T08:06:29.506Z,59.20
2022-08-18T08:09:23.870Z,58.70
2022-08-18T08:11:55.729Z,57.40
2022-08-18T08:14:45.795Z,57.40
2022-08-18T08:17:19.047Z,57.30
2022-08-18T08:20:00.913Z,56.40
2022-08-18T08:22:49.838Z,56.30
2022-08-18T08:25:46.985Z,53.80
2022-08-18T08:28:23.802Z,51.60
2022-08-18T08:31:33.195Z,51.90
2022-08-18T08:34:14.835Z,51.50
2022-08-18T08:36:45.409Z,49.00
2022-08-18T08:39:26.101Z,48.90
2022-08-18T08:42:31.772Z,48.60
2022-08-18T08:45:01.807Z,48.40
2022-08-18T08:47:34.664Z,48.10
2022-08-18T08:50:13.526Z,48.60
2022-08-18T08:52:59.659Z,48.60
2022-08-18T08:55:34.238Z,47.20
2022-08-18T08:58:28.251Z,47.00
2022-08-18T09:00:56.427Z,48.10
2022-08-18T09:03:36.159Z,46.50
2022-08-18T09:06:24.971Z,45.00
2022-08-18T09:08:52.103Z,39.40
2022-08-18T09:11:26.649Z,37.70
2022-08-18T09:14:24.015Z,33.20
2022-08-18T09:17:35.697Z,31.10
2022-08-18T09:20:37.353Z,33.00
2022-08-18T09:23:10.352Z,36.50
2022-08-18T09:25:37.500Z,37.90
2022-08-18T09:28:32.390Z,39.60
2022-08-18T09:31:02.926Z,40.80
2022-08-18T09:33:45.382Z,41.10
2022-08-18T09:36:40.187Z,41.40
2022-08-18T09:40:13.180Z,41.80
2022-08-18T09:42:56.151Z,42.90
2022-08-18T09:45:33.278Z,41.50
2022-08-18T09:50:37.216Z,41.50
2022-08-18T09:51:15.776Z,40.30
2022-08-18T09:53:52.511Z,38.50
2022-08-18T09:57:03.958Z,37.70
2022-08-18T09:59:32.562Z,33.50
2022-08-18T10:02:06.246Z,29.20
2022-08-18T10:04:50.434Z,25.30
2022-08-18T10:07:43.337Z,22.70
2022-08-18T10:11:01.246Z,19.70
2022-08-18T10:13:37.536Z,21.90
2022-08-18T10:16:14.883Z,24.50
2022-08-18T10:19:10.954Z,26.50
2022-08-18T10:21:57.194Z,28.60
2022-08-18T10:24:43.194Z,31.50
2022-08-18T10:27:50.982Z,34.70
2022-08-18T10:30:56.663Z,37.40
2022-08-18T10:33:54.956Z,42.90
2022-08-18T10:36:54.875Z,46.70
2022-08-18T10:39:41.240Z,51.70
2022-08-18T10:42:20.055Z,54.40
2022-08-18T10:44:50.376Z,57.20
2022-08-18T10:47:33.469Z,59.30
2022-08-18T10:50:06.736Z,59.30
2022-08-18T10:53:40.602Z,62.20
2022-08-18T10:56:09.332Z,63.20
2022-08-18T10:58:45.598Z,63.80
2022-08-18T11:01:20.698Z,63.60
2022-08-18T11:04:13.920Z,62.10
2022-08-18T11:06:48.655Z,61.40
2022-08-18T11:09:26.914Z,60.30
2022-08-18T11:11:59.513Z,58.20
2022-08-18T11:18:14.339Z,54.00
2022-08-18T11:20:44.020Z,51.90
2022-08-18T11:23:17.045Z,50.90
2022-08-18T11:25:44.816Z,49.70
2022-08-18T11:28:29.293Z,48.70
2022-08-18T11:30:59.379Z,45.00
2022-08-18T11:33:28.165Z,42.60
2022-08-18T11:35:58.347Z,42.00
2022-08-18T11:38:29.594Z,39.40
2022-08-18T11:41:20.366Z,38.90
2022-08-18T11:43:50.413Z,39.30
2022-08-18T11:49:33.439Z,38.30
2022-08-18T11:52:05.702Z,37.10
2022-08-18T11:54:50.767Z,34.70
2022-08-18T11:57:39.117Z,32.10
2022-08-18T12:00:44.123Z,29.50
2022-08-18T12:03:23.806Z,25.90
2022-08-18T12:05:58.389Z,25.50
2022-08-18T12:09:01.706Z,25.60
2022-08-18T12:11:29.071Z,24.80
2022-08-18T12:14:32.337Z,24.70
2022-08-18T12:16:55.016Z,23.80
2022-08-18T12:19:24.398Z,22.20
2022-08-18T12:21:57.890Z,20.80
2022-08-18T12:24:36.911Z,18.50
2022-08-18T12:29:57.492Z,15.20
2022-08-18T12:32:48.862Z,14.90
2022-08-18T12:35:14.266Z,14.10
2022-08-18T12:38:12.284Z,13.60
2022-08-18T12:40:32.425Z,13.60
2022-08-18T12:43:00.158Z,13.50
2022-08-18T12:45:28.133Z,12.70
2022-08-18T12:47:56.596Z,12.90
2022-08-18T12:50:31.927Z,13.50
2022-08-18T12:53:12.896Z,14.80
2022-08-18T12:55:43.677Z,14.80
2022-08-18T12:58:13.148Z,15.40
2022-08-18T13:00:41.135Z,15.50
2022-08-18T13:03:08.909Z,16.40
2022-08-18T13:05:37.412Z,17.90
2022-08-18T13:08:09.597Z,18.10
2022-08-18T13:10:45.376Z,18.30
2022-08-18T13:13:15.559Z,18.80
2022-08-18T13:15:44.327Z,19.80
2022-08-18T13:18:27.177Z,20.50
2022-08-18T13:20:59.151Z,21.70
2022-08-18T13:23:30.460Z,22.10
2022-08-18T13:26:01.951Z,23.60
2022-08-18T13:28:35.649Z,24.30
2022-08-18T13:31:05.591Z,24.10
2022-08-18T13:33:56.685Z,25.10
2022-08-18T13:36:22.376Z,25.50
2022-08-18T13:38:52.286Z,25.30
2022-08-18T13:43:52.194Z,25.00
2022-08-18T13:46:29.829Z,25.30
2022-08-18T13:49:03.122Z,25.90
2022-08-18T13:51:30.907Z,26.80
2022-08-18T13:54:26.427Z,27.50
2022-08-18T13:56:51.605Z,28.30
2022-08-18T13:59:23.130Z,28.40
2022-08-18T14:01:53.004Z,29.30
2022-08-18T14:04:22.473Z,29.00
2022-08-18T14:06:57.173Z,30.00
2022-08-18T14:09:37.173Z,30.10
2022-08-18T14:12:22.457Z,30.70
2022-08-18T14:14:52.475Z,30.80
2022-08-18T14:17:22.222Z,31.80
2022-08-18T14:20:15.372Z,33.50
2022-08-18T14:23:12.639Z,34.80
2022-08-18T14:25:59.958Z,36.50
2022-08-18T14:28:28.708Z,38.00
2022-08-18T14:30:57.691Z,38.60
2022-08-18T14:33:49.640Z,38.70
2022-08-18T14:36:18.112Z,38.90
2022-08-18T14:38:45.493Z,39.00
2022-08-18T14:41:14.696Z,40.00
2022-08-18T14:43:51.587Z,39.80
2022-08-18T14:46:33.050Z,40.00
2022-08-18T14:49:04.061Z,39.70
2022-08-18T14:51:33.450Z,40.40
2022-08-18T14:54:01.879Z,40.40
2022-08-18T14:56:29.539Z,40.30
2022-08-18T14:58:58.064Z,35.90
2022-08-18T15:01:26.613Z,30.10
2022-08-18T15:03:54.367Z,27.70
2022-08-18T15:06:27.050Z,25.90
2022-08-18T15:08:57.090Z,26.70
2022-08-18T15:11:24.947Z,28.40
2022-08-18T15:13:55.170Z,30.30
2022-08-18T15:16:31.508Z,32.60
2022-08-18T15:19:00.496Z,34.70
2022-08-18T15:21:47.844Z,35.80
2022-08-18T15:24:37.551Z,36.40
2022-08-18T15:27:10.229Z,36.70
2022-08-18T15:29:41.546Z,37.80
2022-08-18T15:32:10.239Z,38.10
2022-08-18T15:34:46.265Z,38.40
2022-08-18T15:37:19.721Z,38.90
2022-08-18T15:39:55.507Z,39.10
2022-08-18T15:42:23.979Z,38.20
2022-08-18T15:44:53.705Z,38.20
2022-08-18T15:47:22.173Z,38.30
2022-08-18T15:49:54.786Z,38.70
2022-08-18T15:52:25.962Z,39.50
2022-08-18T15:54:56.980Z,39.90
2022-08-18T15:57:39.031Z,40.70
2022-08-18T16:00:12.121Z,41.40
2022-08-18T16:02:44.772Z,42.00
2022-08-18T16:05:17.097Z,42.40
2022-08-18T16:07:45.918Z,43.00
2022-08-18T16:10:15.606Z,41.80
2022-08-18T16:12:45.665Z,40.80
2022-08-18T16:15:22.505Z,40.60
2022-08-18T16:17:51.949Z,40.10
2022-08-18T16:20:20.458Z,38.20
2022-08-18T16:22:47.920Z,35.80
2022-08-18T16:25:16.607Z,34.80
2022-08-18T16:27:44.303Z,33.40
2022-08-18T16:30:15.570Z,30.50
2022-08-18T16:32:42.905Z,29.10
2022-08-18T16:35:11.024Z,28.40
2022-08-18T16:37:39.022Z,28.40
2022-08-18T16:40:06.772Z,27.90
2022-08-18T16:42:34.288Z,28.10
2022-08-18T16:45:01.891Z,27.40
2022-08-18T16:47:29.087Z,27.80
2022-08-18T16:49:58.526Z,27.70
2022-08-18T16:52:27.098Z,27.80
2022-08-18T16:54:57.931Z,28.00
2022-08-18T16:57:55.082Z,27.90
2022-08-18T17:00:43.782Z,28.50
2022-08-18T17:03:30.197Z,28.50
2022-08-18T17:06:05.041Z,28.90
2022-08-18T17:08:34.045Z,29.10
2022-08-18T17:11:09.238Z,29.50
2022-08-18T17:13:39.977Z,30.50
2022-08-18T17:16:08.470Z,29.90
2022-08-18T17:18:36.646Z,30.10
2022-08-18T17:21:05.887Z,30.60
2022-08-18T17:23:34.037Z,31.50
2022-08-18T17:26:17.393Z,31.00
2022-08-18T17:28:54.317Z,32.20
2022-08-18T17:31:24.526Z,32.50
2022-08-18T17:33:56.826Z,33.00
2022-08-18T17:36:33.612Z,33.40
2022-08-18T17:39:03.977Z,34.20
2022-08-18T17:41:31.373Z,35.30
2022-08-18T17:44:00.871Z,35.80
2022-08-18T17:46:37.662Z,36.20
2022-08-18T17:49:12.702Z,36.80
2022-08-18T17:51:49.846Z,38.00
2022-08-18T17:54:27.605Z,39.50
2022-08-18T17:57:01.430Z,41.10
2022-08-18T17:59:45.531Z,42.00
2022-08-18T18:02:29.968Z,44.30
2022-08-18T18:04:59.957Z,44.90
2022-08-18T18:07:31.353Z,45.50
2022-08-18T18:10:03.085Z,46.20
2022-08-18T18:12:32.617Z,46.90
2022-08-18T18:15:02.087Z,47.40
2022-08-18T18:17:39.453Z,47.30
2022-08-18T18:20:25.790Z,47.00
2022-08-18T18:22:53.186Z,46.80
2022-08-18T18:25:34.361Z,47.10
2022-08-18T18:28:02.429Z,47.50
2022-08-18T18:30:29.795Z,48.70
2022-08-18T18:33:04.336Z,48.40
2022-08-18T18:35:54.713Z,48.80
2022-08-18T18:38:33.147Z,49.40
2022-08-18T18:41:06.594Z,50.00
2022-08-18T18:43:34.869Z,51.30
2022-08-18T18:46:19.439Z,52.10
2022-08-18T18:49:03.012Z,53.10
2022-08-18T18:51:55.955Z,53.80
2022-08-18T18:54:35.097Z,54.00
2022-08-18T18:57:09.794Z,55.50
2022-08-18T18:59:51.738Z,56.30
2022-08-18T19:02:46.695Z,57.80
2022-08-18T19:05:23.219Z,57.90
2022-08-18T19:08:15.690Z,59.10
2022-08-18T19:11:01.598Z,59.90
2022-08-18T19:13:35.081Z,60.60
2022-08-18T19:16:31.160Z,61.30
2022-08-18T19:19:35.715Z,61.50
2022-08-18T19:22:11.567Z,62.50
2022-08-18T19:24:50.818Z,62.90
2022-08-18T19:27:25.269Z,63.40
2022-08-18T19:29:56.816Z,63.90
2022-08-18T19:32:36.955Z,64.30
2022-08-18T19:35:12.325Z,64.60
2022-08-18T19:37:46.904Z,65.50
2022-08-18T19:40:29.250Z,65.90
2022-08-18T19:43:35.888Z,66.60
2022-08-18T19:46:12.064Z,67.00
2022-08-18T19:49:02.629Z,67.50
2022-08-18T19:51:39.857Z,67.70
2022-08-18T19:54:19.277Z,68.20
2022-08-18T19:56:58.383Z,68.40
2022-08-18T19:59:48.458Z,68.50
2022-08-18T20:03:06.516Z,69.10
2022-08-18T20:06:20.892Z,69.40
2022-08-18T20:09:14.294Z,69.60
2022-08-18T20:11:59.270Z,70.20
2022-08-18T20:14:26.791Z,70.70
2022-08-18T20:17:08.976Z,71.20
2022-08-18T20:19:39.230Z,71.20
2022-08-18T20:22:21.043Z,71.10
2022-08-18T20:24:52.986Z,71.60
2022-08-18T20:27:32.865Z,72.10
2022-08-18T20:30:20.409Z,72.20
2022-08-18T20:33:06.913Z,73.60
2022-08-18T20:35:46.884Z,73.50
2022-08-18T20:38:20.628Z,73.80
2022-08-18T20:40:50.841Z,74.40
2022-08-18T20:43:34.278Z,74.70
2022-08-18T20:46:08.253Z,75.40
2022-08-18T20:49:05.702Z,74.80
2022-08-18T20:52:04.137Z,75.90
2022-08-18T20:54:58.483Z,76.20
2022-08-18T20:57:34.800Z,76.50
2022-08-18T21:00:15.731Z,76.50
2022-08-18T21:02:54.537Z,76.60
2022-08-18T21:05:31.574Z,76.60
2022-08-18T21:08:24.682Z,77.00
2022-08-18T21:10:59.649Z,77.50
2022-08-18T21:13:47.037Z,77.30
2022-08-18T21:16:38.277Z,77.70
2022-08-18T21:19:24.578Z,77.90
2022-08-18T21:21:58.302Z,77.90
2022-08-18T21:24:43.816Z,77.70
2022-08-18T21:27:38.506Z,77.70
2022-08-18T21:30:21.216Z,78.10
2022-08-18T21:32:49.624Z,78.30
2022-08-18T21:35:27.711Z,78.70
2022-08-18T21:37:57.321Z,79.10
2022-08-18T21:40:38.729Z,79.30
2022-08-18T21:43:08.550Z,79.70
2022-08-18T21:45:49.438Z,79.80
2022-08-18T21:48:18.915Z,80.20
2022-08-18T21:50:53.043Z,80.20
2022-08-18T21:53:25.769Z,80.60
2022-08-18T21:55:57.322Z,80.50
2022-08-18T21:58:34.151Z,80.80
2022-08-18T22:01:23.775Z,80.80
2022-08-18T22:03:52.531Z,81.10
2022-08-18T22:06:32.887Z,82.70
2022-08-18T22:09:27.797Z,81.10
2022-08-18T22:12:32.407Z,82.00
2022-08-18T22:15:10.385Z,82.70
2022-08-18T22:17:55.386Z,82.10
2022-08-18T22:20:37.601Z,82.80
2022-08-18T22:23:32.161Z,83.30
2022-08-18T22:26:12.309Z,83.40
2022-08-18T22:29:11.651Z,84.40
2022-08-18T22:31:40.288Z,85.50
2022-08-18T22:34:27.916Z,86.00
2022-08-18T22:37:20.695Z,86.70
2022-08-18T22:39:52.559Z,86.30
2022-08-18T22:42:21.754Z,87.10
2022-08-18T22:44:48.940Z,87.40
2022-08-18T22:47:16.657Z,87.60
2022-08-18T22:49:45.115Z,86.80
2022-08-18T22:52:22.575Z,87.40
2022-08-18T22:54:59.250Z,87.00
2022-08-18T22:57:29.747Z,86.60
2022-08-18T22:59:57.677Z,86.40
2022-08-18T23:02:27.433Z,86.20
2022-08-18T23:04:54.610Z,86.20
2022-08-18T23:07:22.840Z,86.30
2022-08-18T23:09:50.071Z,86.40
2022-08-18T23:12:17.221Z,86.20
2022-08-18T23:14:46.539Z,86.30
2022-08-18T23:17:14.273Z,86.50
2022-08-18T23:19:42.610Z,86.80
2022-08-18T23:22:10.561Z,87.10
2022-08-18T23:24:38.590Z,87.30
2022-08-18T23:27:06.951Z,87.40
2022-08-18T23:29:37.462Z,86.80
2022-08-18T23:32:05.737Z,87.50
2022-08-18T23:34:34.803Z,87.70
2022-08-18T23:37:03.216Z,88.10
2022-08-18T23:39:33.147Z,87.50
2022-08-18T23:42:01.894Z,88.70
2022-08-18T23:44:29.632Z,88.90
2022-08-18T23:46:58.253Z,89.00
2022-08-18T23:49:28.495Z,88.50
2022-08-18T23:51:57.560Z,89.60
2022-08-18T23:54:31.458Z,89.70
2022-08-18T23:56:59.226Z,89.30
2022-08-18T23:59:28.103Z,89.70
